Penil Barcena — EA3690 — position and weather

sailwx.info

Track history (hours):
 
Tides and Currents Weather Stations Pressure Air Temp Water Temp Dewpoint Dewpoint Depression Visibility Wind Speed Wind Dir Waves Ship Positions

Penil Barcena

Last reported at 2017-Nov-16 02:06 UTC. Time now 2017-Nov-18 10:23 UTC.
Position N 43°27' W 003°49'.

Length 21 m.

Type: Fishing. MMSI: 224069650.

Date/timePositionNaut miles runAvg speedWind from/ knotsBaromVisibWave heightAir tempDewpointWater temp
2017-Nov-16 02:06N 43°27' W 003°49'1 8.1
2017-Nov-16 01:55N 43°28' W 003°47'5 8.1
2017-Nov-16 01:21N 43°30' W 003°41'3 8.2
2017-Nov-16 01:01N 43°31' W 003°38'4 8.6
2017-Nov-16 00:30N 43°33' W 003°33'4 8.7
2017-Nov-16 00:01N 43°35' W 003°27'4 8.5
2017-Nov-15 23:31N 43°36' W 003°21'3 6.2
2017-Nov-15 23:01N 43°37' W 003°18'0 0.1
2017-Nov-15 22:31N 43°37' W 003°18'0 0.4
2017-Nov-15 22:01N 43°37' W 003°18'0 0.4
2017-Nov-15 21:31N 43°37' W 003°18'4 7.6
2017-Nov-15 21:01N 43°37' W 003°13'4 8.8
2017-Nov-15 20:30N 43°38' W 003°07'4 8.8
2017-Nov-15 20:00N 43°39' W 003°01'4 8.8
2017-Nov-15 19:31N 43°40' W 002°55'4 8.8
2017-Nov-15 19:00N 43°41' W 002°49'5 9.1
2017-Nov-15 18:30N 43°42' W 002°43'5 9.2
2017-Nov-15 18:00N 43°43' W 002°37'4 9.0
2017-Nov-15 17:31N 43°45' W 002°31'4 8.8
2017-Nov-15 17:00N 43°46' W 002°25'4 8.6
2017-Nov-15 16:30N 43°48' W 002°20'4 8.5
2017-Nov-15 16:01N 43°49' W 002°14'3 6.3
2017-Nov-15 15:31N 43°52' W 002°13'1 1.0
2017-Nov-15 15:01N 43°52' W 002°12'0 0.7
2017-Nov-15 14:31N 43°51' W 002°12'0 1.0
2017-Nov-15 14:00N 43°51' W 002°12'1 1.1
2017-Nov-15 13:31N 43°50' W 002°13'1 2.5
2017-Nov-15 13:00N 43°50' W 002°11'4 8.7
2017-Nov-15 12:31N 43°49' W 002°05'2 4.1
2017-Nov-15 12:00N 43°48' W 002°02'1 2.7
2017-Nov-15 11:31N 43°49' W 002°03'0 0.9
2017-Nov-15 11:00N 43°49' W 002°02'1 1.2
2017-Nov-15 10:30N 43°48' W 002°02'1 1.2
2017-Nov-15 10:00N 43°48' W 002°02'1 1.2
2017-Nov-15 09:30N 43°47' W 002°02'2 4.1
2017-Nov-15 09:01N 43°45' W 002°02'1 1.4
2017-Nov-15 08:31N 43°44' W 002°02'0 0.7
2017-Nov-15 08:01N 43°45' W 002°02'0 0.5
2017-Nov-15 07:31N 43°45' W 002°02'1 1.7
2017-Nov-15 07:00N 43°45' W 002°03'4 7.4
2017-Nov-15 06:30N 43°45' W 002°08'0 0.3
2017-Nov-15 06:01N 43°45' W 002°08'0 0.4
2017-Nov-15 05:30N 43°45' W 002°08'0 0.5
2017-Nov-15 05:00N 43°45' W 002°07'0 0.7
2017-Nov-15 04:31N 43°45' W 002°07'0 0.7
2017-Nov-15 04:00N 43°45' W 002°07'0 0.8
2017-Nov-15 03:30N 43°45' W 002°06'0 0.8
2017-Nov-15 03:01N 43°45' W 002°06'0 0.8
2017-Nov-15 02:30N 43°46' W 002°05'0 0.8
2017-Nov-15 02:00N 43°46' W 002°05'0 0.9
2017-Nov-15 01:30N 43°46' W 002°04'0 0.9
2017-Nov-15 01:00N 43°46' W 002°04'0 0.8
2017-Nov-15 00:30N 43°47' W 002°04'0 0.9
2017-Nov-15 00:00N 43°47' W 002°03'0 0.9
2017-Nov-14 23:30N 43°48' W 002°03'0 0.9
2017-Nov-14 23:01N 43°48' W 002°03'1 1.0
2017-Nov-14 22:25N 43°49' W 002°03'0 1.0
2017-Nov-14 21:58N 43°49' W 002°03'3 6.5
2017-Nov-14 21:30N 43°52' W 002°03'4 8.4
2017-Nov-14 21:00N 43°56' W 002°04'4 6.8
2017-Nov-14 20:27N 43°56' W 002°10'1 3.2
2017-Nov-14 20:00N 43°56' W 002°12'0 0.6
2017-Nov-14 19:30N 43°56' W 002°11'1 1.3
2017-Nov-14 19:01N 43°57' W 002°11'1 1.1
2017-Nov-14 18:30N 43°57' W 002°11'1 1.3
2017-Nov-14 18:00N 43°58' W 002°11'0 0.6
2017-Nov-14 17:30N 43°58' W 002°11'2 3.7
2017-Nov-14 17:00N 44°00' W 002°11'3 0.6
2017-Nov-14 11:07N 44°03' W 002°09'0 1.2
2017-Nov-14 10:53N 44°03' W 002°09'1 2.1
2017-Nov-14 10:28N 44°03' W 002°11'2 5.2
2017-Nov-14 09:59N 44°05' W 002°09'2 1.0
2017-Nov-14 07:27N 44°03' W 002°11'1 2.0
2017-Nov-14 06:58N 44°03' W 002°12'4 8.2
2017-Nov-14 06:28N 44°01' W 002°17'4 8.2
2017-Nov-14 06:00N 43°59' W 002°22'4 8.2
2017-Nov-14 05:31N 43°57' W 002°26'4 8.2
2017-Nov-14 05:00N 43°54' W 002°31'4 8.3
2017-Nov-14 04:30N 43°53' W 002°36'4 8.3
2017-Nov-14 04:00N 43°51' W 002°42'4 8.2
2017-Nov-14 03:30N 43°49' W 002°47'4 8.2
2017-Nov-14 03:00N 43°47' W 002°52'4 8.2
2017-Nov-14 02:27N 43°45' W 002°58'4 8.3
2017-Nov-14 02:00N 43°44' W 003°02'5 8.2
2017-Nov-14 01:25N 43°42' W 003°08'3 8.1
2017-Nov-14 01:00N 43°40' W 003°13'4 8.2
2017-Nov-14 00:29N 43°38' W 003°18'4 8.4
2017-Nov-14 00:00N 43°37' W 003°23'4 8.3
2017-Nov-13 23:30N 43°35' W 003°28'4 8.1
2017-Nov-13 23:00N 43°33' W 003°33'4 8.2
2017-Nov-13 22:30N 43°31' W 003°38'7 8.1
2017-Nov-13 21:42N 43°28' W 003°46'  
Track history (hours):
 
Tides and Currents Weather Stations Pressure Air Temp Water Temp Dewpoint Dewpoint Depression Visibility Wind Speed Wind Dir Waves Ship Positions

Penil Barcena

Last reported at 2017-Nov-16 02:06 UTC. Time now 2017-Nov-18 10:23 UTC.
Position N 43°27' W 003°49'.

Length 21 m.

Type: Fishing. MMSI: 224069650.

Date/timePositionNaut miles runAvg speedWind from/ knotsBaromVisibWave heightAir tempDewpointWater temp
2017-Nov-16 02:06N 43°27' W 003°49'1 8.1
2017-Nov-16 01:55N 43°28' W 003°47'5 8.1
2017-Nov-16 01:21N 43°30' W 003°41'3 8.2
2017-Nov-16 01:01N 43°31' W 003°38'4 8.6
2017-Nov-16 00:30N 43°33' W 003°33'4 8.7
2017-Nov-16 00:01N 43°35' W 003°27'4 8.5
2017-Nov-15 23:31N 43°36' W 003°21'3 6.2
2017-Nov-15 23:01N 43°37' W 003°18'0 0.1
2017-Nov-15 22:31N 43°37' W 003°18'0 0.4
2017-Nov-15 22:01N 43°37' W 003°18'0 0.4
2017-Nov-15 21:31N 43°37' W 003°18'4 7.6
2017-Nov-15 21:01N 43°37' W 003°13'4 8.8
2017-Nov-15 20:30N 43°38' W 003°07'4 8.8
2017-Nov-15 20:00N 43°39' W 003°01'4 8.8
2017-Nov-15 19:31N 43°40' W 002°55'4 8.8
2017-Nov-15 19:00N 43°41' W 002°49'5 9.1
2017-Nov-15 18:30N 43°42' W 002°43'5 9.2
2017-Nov-15 18:00N 43°43' W 002°37'4 9.0
2017-Nov-15 17:31N 43°45' W 002°31'4 8.8
2017-Nov-15 17:00N 43°46' W 002°25'4 8.6
2017-Nov-15 16:30N 43°48' W 002°20'4 8.5
2017-Nov-15 16:01N 43°49' W 002°14'3 6.3
2017-Nov-15 15:31N 43°52' W 002°13'1 1.0
2017-Nov-15 15:01N 43°52' W 002°12'0 0.7
2017-Nov-15 14:31N 43°51' W 002°12'0 1.0
2017-Nov-15 14:00N 43°51' W 002°12'1 1.1
2017-Nov-15 13:31N 43°50' W 002°13'1 2.5
2017-Nov-15 13:00N 43°50' W 002°11'4 8.7
2017-Nov-15 12:31N 43°49' W 002°05'2 4.1
2017-Nov-15 12:00N 43°48' W 002°02'1 2.7
2017-Nov-15 11:31N 43°49' W 002°03'0 0.9
2017-Nov-15 11:00N 43°49' W 002°02'1 1.2
2017-Nov-15 10:30N 43°48' W 002°02'1 1.2
2017-Nov-15 10:00N 43°48' W 002°02'1 1.2
2017-Nov-15 09:30N 43°47' W 002°02'2 4.1
2017-Nov-15 09:01N 43°45' W 002°02'1 1.4
2017-Nov-15 08:31N 43°44' W 002°02'0 0.7
2017-Nov-15 08:01N 43°45' W 002°02'0 0.5
2017-Nov-15 07:31N 43°45' W 002°02'1 1.7
2017-Nov-15 07:00N 43°45' W 002°03'4 7.4
2017-Nov-15 06:30N 43°45' W 002°08'0 0.3
2017-Nov-15 06:01N 43°45' W 002°08'0 0.4
2017-Nov-15 05:30N 43°45' W 002°08'0 0.5
2017-Nov-15 05:00N 43°45' W 002°07'0 0.7
2017-Nov-15 04:31N 43°45' W 002°07'0 0.7
2017-Nov-15 04:00N 43°45' W 002°07'0 0.8
2017-Nov-15 03:30N 43°45' W 002°06'0 0.8
2017-Nov-15 03:01N 43°45' W 002°06'0 0.8
2017-Nov-15 02:30N 43°46' W 002°05'0 0.8
2017-Nov-15 02:00N 43°46' W 002°05'0 0.9
2017-Nov-15 01:30N 43°46' W 002°04'0 0.9
2017-Nov-15 01:00N 43°46' W 002°04'0 0.8
2017-Nov-15 00:30N 43°47' W 002°04'0 0.9
2017-Nov-15 00:00N 43°47' W 002°03'0 0.9
2017-Nov-14 23:30N 43°48' W 002°03'0 0.9
2017-Nov-14 23:01N 43°48' W 002°03'1 1.0
2017-Nov-14 22:25N 43°49' W 002°03'0 1.0
2017-Nov-14 21:58N 43°49' W 002°03'3 6.5
2017-Nov-14 21:30N 43°52' W 002°03'4 8.4
2017-Nov-14 21:00N 43°56' W 002°04'4 6.8
2017-Nov-14 20:27N 43°56' W 002°10'1 3.2
2017-Nov-14 20:00N 43°56' W 002°12'0 0.6
2017-Nov-14 19:30N 43°56' W 002°11'1 1.3
2017-Nov-14 19:01N 43°57' W 002°11'1 1.1
2017-Nov-14 18:30N 43°57' W 002°11'1 1.3
2017-Nov-14 18:00N 43°58' W 002°11'0 0.6
2017-Nov-14 17:30N 43°58' W 002°11'2 3.7
2017-Nov-14 17:00N 44°00' W 002°11'3 0.6
2017-Nov-14 11:07N 44°03' W 002°09'0 1.2
2017-Nov-14 10:53N 44°03' W 002°09'1 2.1
2017-Nov-14 10:28N 44°03' W 002°11'2 5.2
2017-Nov-14 09:59N 44°05' W 002°09'2 1.0
2017-Nov-14 07:27N 44°03' W 002°11'1 2.0
2017-Nov-14 06:58N 44°03' W 002°12'4 8.2
2017-Nov-14 06:28N 44°01' W 002°17'4 8.2
2017-Nov-14 06:00N 43°59' W 002°22'4 8.2
2017-Nov-14 05:31N 43°57' W 002°26'4 8.2
2017-Nov-14 05:00N 43°54' W 002°31'4 8.3
2017-Nov-14 04:30N 43°53' W 002°36'4 8.3
2017-Nov-14 04:00N 43°51' W 002°42'4 8.2
2017-Nov-14 03:30N 43°49' W 002°47'4 8.2
2017-Nov-14 03:00N 43°47' W 002°52'4 8.2
2017-Nov-14 02:27N 43°45' W 002°58'4 8.3
2017-Nov-14 02:00N 43°44' W 003°02'5 8.2
2017-Nov-14 01:25N 43°42' W 003°08'3 8.1
2017-Nov-14 01:00N 43°40' W 003°13'4 8.2
2017-Nov-14 00:29N 43°38' W 003°18'4 8.4
2017-Nov-14 00:00N 43°37' W 003°23'4 8.3
2017-Nov-13 23:30N 43°35' W 003°28'4 8.1
2017-Nov-13 23:00N 43°33' W 003°33'4 8.2
2017-Nov-13 22:30N 43°31' W 003°38'7 8.1
2017-Nov-13 21:42N 43°28' W 003°46'  

Dump ship's entire track history